• Join FlightAware (Why Join?)
  • Login
  • US Flag 
09:16PM EST


 

Airport Tracker/Info


-or-


 

Live Flight TrackerFlight Track Log ✈ AIP5010 ✈ 14-Nov-2013 ✈ KGTF - KBIL

Flight Track Log - Related Links

Times and Time Zones

All times are in EST time to prevent confusion due to time zone crossing. See the AIP5010 flight status page for this flight to view local times or setup timezone preferences in your user account.

Time Position Orientation Groundspeed Altitude Reporting Facility
EST Latitude Longitude Course Direction KTS MPH feet Rate Location/Type
01:46AM 47.4494 -111.3436 126° Southeast 155 178 6,200  Level Salt Lake Center
01:47AM 47.4214 -111.2861 126° Southeast 168 193 7,900 1,560 Climbing Salt Lake Center
01:49AM 47.3883 -111.2275 130° Southeast 176 203 9,400 1,620 Climbing Salt Lake Center
01:50AM 47.3467 -111.1567 131° Southeast 186 214 11,200 1,500 Climbing Salt Lake Center
01:51AM 47.3117 -111.0994 132° Southeast 188 216 12,400 1,080 Climbing Salt Lake Center
01:52AM 47.2775 -111.0383 129° Southeast 190 219 13,400 840 Climbing Salt Lake Center
01:53AM 47.2419 -110.9739 129° Southeast 196 226 14,200 840 Climbing Salt Lake Center
01:54AM 47.2039 -110.9081 130° Southeast 203 234 15,100 480 Climbing Salt Lake Center
01:55AM 47.1636 -110.8383 130° Southeast 212 244 15,200  Climbing Salt Lake Center
01:56AM 47.1206 -110.7617 130° Southeast 227 261 15,100 -60 Descending Salt Lake Center
01:57AM 47.0769 -110.6842 130° Southeast 238 274 15,100  Level Salt Lake Center
01:58AM 47.0336 -110.6067 129° Southeast 244 281 15,100  Level Salt Lake Center
01:59AM 46.9906 -110.5325 130° Southeast 242 278 15,100 -60 Level Salt Lake Center
02:00AM 46.9467 -110.4556 130° Southeast 244 281 15,000  Descending Salt Lake Center
02:01AM 46.9036 -110.3800 130° Southeast 244 281 15,100  Climbing Salt Lake Center
02:02AM 46.8589 -110.3039 131° Southeast 245 282 15,100 -120 Level Salt Lake Center
02:03AM 46.8161 -110.2292 130° Southeast 242 278 14,900 -60 Descending Salt Lake Center
02:04AM 46.7744 -110.1553 129° Southeast 238 274 15,000  Climbing Salt Lake Center
02:05AM 46.7311 -110.0806 130° Southeast 240 276 15,000  Level Salt Lake Center
02:06AM 46.6819 -109.9961 130° Southeast 241 277 15,000  Level Salt Lake Center
02:07AM 46.6392 -109.9228 130° Southeast 240 276 15,100  Climbing Salt Lake Center
02:08AM 46.5958 -109.8494 131° Southeast 239 275 15,000 -60 Descending Salt Lake Center
02:09AM 46.5503 -109.7750 132° Southeast 235 270 15,000  Level Salt Lake Center
02:10AM 46.5125 -109.7100 130° Southeast 229 264 15,100  Climbing Salt Lake Center
02:11AM 46.4708 -109.6403 131° Southeast 229 264 15,100  Level Salt Lake Center
02:12AM 46.4283 -109.5681 130° Southeast 233 268 15,100  Level Salt Lake Center
02:13AM 46.3825 -109.4900 130° Southeast 237 273 15,100  Level Salt Lake Center
02:14AM 46.3397 -109.4194 131° Southeast 236 272 15,100  Level Salt Lake Center
02:15AM 46.2983 -109.3481 130° Southeast 235 270 15,100 -60 Level Salt Lake Center
02:16AM 46.2564 -109.2767 130° Southeast 235 270 15,000 -300 Descending Salt Lake Center
02:17AM 46.2128 -109.2036 131° Southeast 242 278 14,600 -780 Descending Salt Lake Center
02:18AM 46.1619 -109.1194 131° Southeast 257 296 13,500 -1,080 Descending Salt Lake Center
02:19AM 46.1178 -109.0386 128° Southeast 260 299 12,500 -1,020 Descending Salt Lake Center
02:20AM 46.0772 -108.9533 124° Southeast 261 300 11,500 -1,140 Descending Salt Lake Center
02:21AM 46.0356 -108.8717 126° Southeast 256 295 10,300 -1,200 Descending Salt Lake Center
02:22AM 45.9950 -108.7958 128° Southeast 245 282 9,200 -1,200 Descending Salt Lake Center
02:23AM 45.9539 -108.7200 128° Southeast 243 280 7,900 -1,320 Descending Salt Lake Center
02:24AM 45.9061 -108.6389 130° Southeast 247 284 6,600 -1,080 Descending Salt Lake Center
02:25AM 45.8647 -108.5703 131° Southeast 234 269 5,800 -780 Descending Salt Lake Center
02:26AM 45.8328 -108.5044 125° Southeast 205 236 5,100 -600 Descending Salt Lake Center
02:27AM 45.8056 -108.4744 142° Southeast 145 167 4,600 -720 Descending Salt Lake Center
02:28AM 45.8017 -108.5164 262° West 118 136 3,700 -900 Descending Salt Lake Center
02:30AM 45.8000 -108.5333 270° West  Level FlightAware Approximate